Witts Springs, AR (72686)

7:59 PM CDT on May 27, 2017 (GMT -0500)
Snowball | | Change Station
Active Advisory: Tornado Watch

Elev 909 ft 35.92 °N, 92.83 °W | Updated 6 seconds ago

Partly Cloudy
Partly Cloudy
81.0 °F
Feels Like 84 °F
N
0.0
Wind Variable Wind from ENE
Gusts 0.0 mph

Today
High -- | Low -- °F
--% Chance of Precip.
Yesterday
High -- | Low -- °F
Precip. -- in
Pressure 29.78 in
Visibility 7.0 miles
Clouds Clear
Heat Index 84 °F
Dew Point 68 °F
Humidity 66%
Rainfall 0.00 in
Snow Depth Not available.
5:58 AM 8:19 PM
Waxing Crescent, 7% visible
METAR KCCA 280055Z AUTO 20004KT 7SM CLR 28/24 A2978 RMK AO2
Pressure 29.78 in
Visibility 7.0 miles
Clouds Clear
Heat Index 84 °F
Dew Point 68 °F
Humidity 66%
Rainfall 0.00 in
Snow Depth Not available.
5:58 AM 8:19 PM
Waxing Crescent, 7% visible
METAR KCCA 280055Z AUTO 20004KT 7SM CLR 28/24 A2978 RMK AO2

Get Your Daily Forecast Email!

Thanks for signing up!

Be on the lookout for a verification email in your inbox.

You'll start receiving severe weather alerts in your inbox..

×

10-Day Weather Forecast

Almanac

Astronomy

May. 27, 2017 Rise Set
Actual Time
Civil Twilight
Nautical Twilight
Astronomical Twilight
Moon
Length of Visible Light
Length of Day
Tomorrow will be .
, % of the Moon is Illuminated

Today's Extremes

State Highs State Lows

Community

WunderPhotos

Category 6

Welcome to Category 6. This is the collective home for Weather Underground's featured writeups by Dr. Jeff Masters (right), Bob Henson (left), Chris Burt, and other regular contributors.

Nearby

Air Quality

  Air Quality AQ Index Pollutant
Not available.

Snow Depth

Station Depth Elevation

Earthquake Activity

City Distance Mag. Time & Date
Minimum magnitude displayed is 2.5.

Coastal Water Temperatures

Place Temperature

Stations

Nearby Weather Stations

Station Location Temp. Windchill Dew Point Humidity Wind Precip. Elev Updated Type
                   

Watches & Warnings

Tornado Watch
Issued: 7:43 PM CDT May. 27, 2017 – National Weather Service

Tornado Watch 284 remains in effect until 200 am CDT for the
following locations


AR
. Arkansas counties included are

Baxter Boone Clay
Cleburne Conway Craighead
Fulton Greene Independence
Izard Jackson Johnson
Lawrence Logan Marion
Mississippi Newton Poinsett
Pope Randolph Scott
Searcy sharp stone
Van Buren Yell